sensor_id;sensor_type;location;lat;lon;timestamp;P1;durP1;ratioP1;P2;durP2;ratioP2
49980;SDS011;35871;51.594;7.138;2022-12-29T07:01:28;2.33;;;0.63;;
49980;SDS011;35871;51.594;7.138;2022-12-29T07:06:35;1.17;;;0.57;;
49980;SDS011;35871;51.594;7.138;2022-12-29T07:11:50;1.80;;;0.80;;
49980;SDS011;35871;51.594;7.138;2022-12-29T07:16:59;1.50;;;0.73;;
49980;SDS011;35871;51.594;7.138;2022-12-29T07:22:01;2.08;;;0.60;;
49980;SDS011;35871;51.594;7.138;2022-12-29T07:27:06;1.85;;;0.50;;
49980;SDS011;35871;51.594;7.138;2022-12-29T07:32:18;2.17;;;0.68;;
49980;SDS011;35871;51.594;7.138;2022-12-29T07:37:22;1.65;;;0.63;;
49980;SDS011;35871;51.594;7.138;2022-12-29T07:42:26;3.47;;;0.70;;
49980;SDS011;35871;51.594;7.138;2022-12-29T07:47:27;3.72;;;0.80;;
49980;SDS011;35871;51.594;7.138;2022-12-29T07:52:28;2.63;;;0.60;;
49980;SDS011;35871;51.594;7.138;2022-12-29T07:57:29;2.15;;;0.80;;
49980;SDS011;35871;51.594;7.138;2022-12-29T08:02:31;2.50;;;1.00;;
49980;SDS011;35871;51.594;7.138;2022-12-29T08:07:32;3.53;;;0.63;;
49980;SDS011;35871;51.594;7.138;2022-12-29T08:12:32;2.28;;;0.80;;
49980;SDS011;35871;51.594;7.138;2022-12-29T08:17:34;3.03;;;1.00;;
49980;SDS011;35871;51.594;7.138;2022-12-29T08:22:35;3.70;;;1.20;;
49980;SDS011;35871;51.594;7.138;2022-12-29T08:27:36;3.20;;;1.52;;
49980;SDS011;35871;51.594;7.138;2022-12-29T08:32:38;3.78;;;1.50;;
49980;SDS011;35871;51.594;7.138;2022-12-29T08:37:39;2.38;;;1.02;;
49980;SDS011;35871;51.594;7.138;2022-12-29T08:47:41;2.90;;;1.50;;
49980;SDS011;35871;51.594;7.138;2022-12-29T08:52:42;4.97;;;2.25;;
49980;SDS011;35871;51.594;7.138;2022-12-29T08:58:02;6.32;;;2.83;;
49980;SDS011;35871;51.594;7.138;2022-12-29T09:03:26;6.93;;;3.97;;
49980;SDS011;35871;51.594;7.138;2022-12-29T09:13:29;7.03;;;3.70;;
49980;SDS011;35871;51.594;7.138;2022-12-29T09:23:31;6.55;;;3.35;;
49980;SDS011;35871;51.594;7.138;2022-12-29T09:28:32;7.80;;;3.30;;
49980;SDS011;35871;51.594;7.138;2022-12-29T09:33:43;5.97;;;1.90;;
49980;SDS011;35871;51.594;7.138;2022-12-29T09:38:49;6.18;;;2.55;;
49980;SDS011;35871;51.594;7.138;2022-12-29T09:49:00;4.75;;;2.15;;
49980;SDS011;35871;51.594;7.138;2022-12-29T09:54:24;5.32;;;1.92;;
49980;SDS011;35871;51.594;7.138;2022-12-29T09:59:36;4.88;;;1.85;;
49980;SDS011;35871;51.594;7.138;2022-12-29T10:04:41;5.75;;;2.88;;
49980;SDS011;35871;51.594;7.138;2022-12-29T10:32:00;3.55;;;1.35;;
49980;SDS011;35871;51.594;7.138;2022-12-29T10:42:46;3.75;;;1.45;;
49980;SDS011;35871;51.594;7.138;2022-12-29T10:48:32;4.15;;;1.45;;
49980;SDS011;35871;51.594;7.138;2022-12-29T10:53:45;4.03;;;1.40;;
49980;SDS011;35871;51.594;7.138;2022-12-29T10:58:49;5.90;;;1.98;;
49980;SDS011;35871;51.594;7.138;2022-12-29T11:04:40;4.85;;;1.55;;
49980;SDS011;35871;51.594;7.138;2022-12-29T11:15:17;4.45;;;1.65;;
49980;SDS011;35871;51.594;7.138;2022-12-29T11:25:38;7.25;;;1.58;;
49980;SDS011;35871;51.594;7.138;2022-12-29T11:30:39;5.30;;;1.40;;
49980;SDS011;35871;51.594;7.138;2022-12-29T11:36:22;6.93;;;2.00;;
49980;SDS011;35871;51.594;7.138;2022-12-29T11:41:30;4.60;;;1.60;;
49980;SDS011;35871;51.594;7.138;2022-12-29T11:46:36;4.10;;;1.40;;
49980;SDS011;35871;51.594;7.138;2022-12-29T11:51:48;6.93;;;1.50;;
49980;SDS011;35871;51.594;7.138;2022-12-29T11:56:50;4.65;;;1.35;;
49980;SDS011;35871;51.594;7.138;2022-12-29T12:01:57;4.47;;;1.25;;
49980;SDS011;35871;51.594;7.138;2022-12-29T12:12:00;6.60;;;2.22;;
49980;SDS011;35871;51.594;7.138;2022-12-29T12:17:04;6.25;;;1.60;;
49980;SDS011;35871;51.594;7.138;2022-12-29T12:22:13;5.95;;;1.25;;
49980;SDS011;35871;51.594;7.138;2022-12-29T12:27:33;5.60;;;1.42;;
49980;SDS011;35871;51.594;7.138;2022-12-29T12:33:05;4.30;;;1.50;;
49980;SDS011;35871;51.594;7.138;2022-12-29T12:38:44;3.28;;;1.20;;
49980;SDS011;35871;51.594;7.138;2022-12-29T13:05:00;6.38;;;1.27;;
49980;SDS011;35871;51.594;7.138;2022-12-29T13:26:48;5.95;;;1.30;;
49980;SDS011;35871;51.594;7.138;2022-12-29T13:37:31;7.20;;;1.80;;
49980;SDS011;35871;51.594;7.138;2022-12-29T13:42:33;5.18;;;1.40;;
49980;SDS011;35871;51.594;7.138;2022-12-29T13:58:16;4.70;;;1.90;;
49980;SDS011;35871;51.594;7.138;2022-12-29T14:08:43;3.75;;;1.35;;
49980;SDS011;35871;51.594;7.138;2022-12-29T14:13:49;5.07;;;1.77;;
49980;SDS011;35871;51.594;7.138;2022-12-29T14:18:51;5.35;;;1.45;;
49980;SDS011;35871;51.594;7.138;2022-12-29T14:23:54;4.72;;;1.70;;
49980;SDS011;35871;51.594;7.138;2022-12-29T14:34:25;4.78;;;1.88;;
49980;SDS011;35871;51.594;7.138;2022-12-29T14:44:32;8.93;;;5.22;;
49980;SDS011;35871;51.594;7.138;2022-12-29T14:49:39;5.65;;;2.40;;
49980;SDS011;35871;51.594;7.138;2022-12-29T14:54:43;3.58;;;1.58;;
49980;SDS011;35871;51.594;7.138;2022-12-29T15:10:38;3.35;;;1.50;;
49980;SDS011;35871;51.594;7.138;2022-12-29T15:15:41;4.00;;;1.40;;
49980;SDS011;35871;51.594;7.138;2022-12-29T15:26:03;4.93;;;1.50;;
49980;SDS011;35871;51.594;7.138;2022-12-29T15:31:06;4.45;;;1.25;;
49980;SDS011;35871;51.594;7.138;2022-12-29T15:41:37;4.78;;;1.10;;
49980;SDS011;35871;51.594;7.138;2022-12-29T15:47:04;5.32;;;1.70;;
49980;SDS011;35871;51.594;7.138;2022-12-29T15:52:08;5.15;;;2.30;;
49980;SDS011;35871;51.594;7.138;2022-12-29T15:57:20;4.22;;;1.95;;
49980;SDS011;35871;51.594;7.138;2022-12-29T16:02:25;4.72;;;1.90;;
49980;SDS011;35871;51.594;7.138;2022-12-29T16:07:28;6.63;;;2.10;;
49980;SDS011;35871;51.594;7.138;2022-12-29T16:12:36;6.15;;;1.88;;
49980;SDS011;35871;51.594;7.138;2022-12-29T16:17:45;5.22;;;2.00;;
49980;SDS011;35871;51.594;7.138;2022-12-29T16:22:47;5.38;;;1.80;;
49980;SDS011;35871;51.594;7.138;2022-12-29T16:27:49;7.45;;;1.60;;
49980;SDS011;35871;51.594;7.138;2022-12-29T16:32:52;5.55;;;1.45;;
49980;SDS011;35871;51.594;7.138;2022-12-29T16:43:31;4.00;;;1.40;;
49980;SDS011;35871;51.594;7.138;2022-12-29T16:48:45;4.20;;;2.25;;
49980;SDS011;35871;51.594;7.138;2022-12-29T16:53:50;8.65;;;2.85;;
49980;SDS011;35871;51.594;7.138;2022-12-29T16:59:46;5.07;;;1.83;;
49980;SDS011;35871;51.594;7.138;2022-12-29T17:04:29;5.15;;;2.47;;
49980;SDS011;35871;51.594;7.138;2022-12-29T17:09:30;3.55;;;1.70;;
49980;SDS011;35871;51.594;7.138;2022-12-29T17:19:33;2.67;;;1.40;;
49980;SDS011;35871;51.594;7.138;2022-12-29T18:15:01;2.17;;;0.93;;
49980;SDS011;35871;51.594;7.138;2022-12-29T18:43:00;1.42;;;0.80;;
49980;SDS011;35871;51.594;7.138;2022-12-29T18:48:13;2.08;;;1.02;;
49980;SDS011;35871;51.594;7.138;2022-12-29T19:04:59;3.22;;;1.40;;
49980;SDS011;35871;51.594;7.138;2022-12-29T19:10:00;5.20;;;2.80;;
49980;SDS011;35871;51.594;7.138;2022-12-29T19:20:06;6.75;;;2.80;;
49980;SDS011;35871;51.594;7.138;2022-12-29T19:25:07;4.47;;;1.70;;
49980;SDS011;35871;51.594;7.138;2022-12-29T19:35:09;4.60;;;1.65;;
49980;SDS011;35871;51.594;7.138;2022-12-29T19:40:12;7.97;;;2.08;;
49980;SDS011;35871;51.594;7.138;2022-12-29T19:45:13;3.83;;;1.50;;
49980;SDS011;35871;51.594;7.138;2022-12-29T19:50:15;4.57;;;1.77;;
49980;SDS011;35871;51.594;7.138;2022-12-29T19:55:16;5.43;;;1.90;;
49980;SDS011;35871;51.594;7.138;2022-12-29T20:00:17;6.65;;;2.10;;
49980;SDS011;35871;51.594;7.138;2022-12-29T20:05:18;5.53;;;1.98;;
49980;SDS011;35871;51.594;7.138;2022-12-29T20:15:20;6.28;;;1.67;;
49980;SDS011;35871;51.594;7.138;2022-12-29T20:20:21;5.55;;;1.88;;
